Time;durP1;ratioP1;P1;durP2;ratioP2;P2;SDS_P1;SDS_P2;PMS_P1;PMS_P2;Temp;Humidity;BMP_temperature;BMP_pressure;BME280_temperature;BME280_humidity;BME280_pressure;Samples;Min_cycle;Max_cycle;Signal;HPM_P1;HPM_P2
2022/12/03 00:02:12;;;;;;;11.97;7.33;;;;;;;3.45;81.40;102695.63;6088112;28;21432;-72
2022/12/03 00:05:33;;;;;;;13.37;6.23;;;;;;;3.50;80.95;102685.72;6078398;29;20326;-72
2022/12/03 00:08:55;;;;;;;9.43;7.53;;;;;;;3.42;80.98;102687.72;6070662;29;20630;-72
2022/12/03 00:12:16;;;;;;;9.87;4.77;;;;;;;3.38;80.97;102683.41;6083439;28;20618;-73
2022/12/03 00:15:37;;;;;;;8.63;5.37;;;;;;;3.36;81.04;102673.75;6064589;28;20236;-73
2022/12/03 00:18:58;;;;;;;13.67;8.07;;;;;;;3.29;81.02;102680.16;6069106;28;20236;-72
2022/12/03 00:22:18;;;;;;;8.07;7.27;;;;;;;3.14;81.23;102677.03;6078523;28;20233;-72
2022/12/03 00:25:40;;;;;;;8.40;6.03;;;;;;;3.17;81.43;102684.06;6075474;29;20240;-72
2022/12/03 00:29:01;;;;;;;10.00;5.67;;;;;;;3.00;81.15;102678.34;6062819;28;20244;-71
2022/12/03 00:32:22;;;;;;;11.83;7.73;;;;;;;2.92;81.46;102681.22;6071615;29;20243;-73
2022/12/03 00:35:43;;;;;;;10.93;7.47;;;;;;;2.94;81.68;102684.69;6072888;29;20240;-72
2022/12/03 00:39:04;;;;;;;11.50;5.73;;;;;;;3.10;81.04;102685.16;6043937;29;21644;-72
2022/12/03 00:42:26;;;;;;;10.50;5.27;;;;;;;3.17;80.56;102690.25;6070414;29;20233;-72
2022/12/03 00:45:47;;;;;;;15.17;6.43;;;;;;;3.15;80.72;102683.25;6069509;28;20256;-72
2022/12/03 00:49:08;;;;;;;7.40;5.20;;;;;;;3.25;81.01;102679.38;6075457;29;20236;-72
2022/12/03 00:52:29;;;;;;;9.47;5.50;;;;;;;3.26;80.73;102678.44;6078031;29;20228;-72
2022/12/03 00:55:50;;;;;;;9.67;5.30;;;;;;;3.19;80.52;102676.91;6051301;28;20948;-72
2022/12/03 00:59:12;;;;;;;6.77;5.43;;;;;;;3.12;80.87;102676.22;6076266;29;20236;-71
2022/12/03 01:02:34;;;;;;;10.70;6.10;;;;;;;3.10;80.87;102683.38;6068064;29;20243;-72
2022/12/03 01:05:54;;;;;;;9.20;6.57;;;;;;;2.94;81.37;102684.69;6067592;29;20613;-72
2022/12/03 01:09:15;;;;;;;10.77;5.53;;;;;;;2.99;81.89;102682.78;6082472;28;20251;-72
2022/12/03 01:12:36;;;;;;;8.63;6.47;;;;;;;2.96;82.01;102690.84;6074041;29;20229;-72
2022/12/03 01:15:59;;;;;;;7.30;5.90;;;;;;;3.04;81.53;102688.88;6065927;28;20239;-72
2022/12/03 01:19:20;;;;;;;7.13;5.87;;;;;;;3.09;82.17;102683.41;6078075;29;20291;-72
2022/12/03 01:22:41;;;;;;;10.40;6.73;;;;;;;2.94;82.15;102690.03;6079350;29;20224;-72
2022/12/03 01:26:02;;;;;;;7.83;5.47;;;;;;;3.11;81.89;102695.75;6057247;29;20229;-72
2022/12/03 01:29:23;;;;;;;9.50;6.70;;;;;;;2.88;81.91;102697.34;6071195;29;22104;-71
2022/12/03 01:32:45;;;;;;;8.03;5.67;;;;;;;3.02;81.87;102696.03;6062515;29;20236;-72
2022/12/03 01:36:06;;;;;;;10.70;7.57;;;;;;;3.09;80.96;102694.94;6061316;28;20236;-72
2022/12/03 01:39:27;;;;;;;12.57;6.20;;;;;;;2.96;81.42;102696.19;6068590;29;20233;-72
2022/12/03 01:42:48;;;;;;;9.37;6.50;;;;;;;3.01;81.08;102702.28;6070553;29;20810;-72
2022/12/03 01:46:10;;;;;;;11.67;6.73;;;;;;;2.94;81.31;102695.34;6058887;29;20233;-72
2022/12/03 01:49:38;;;;;;;8.47;6.27;;;;;;;3.01;80.95;102691.63;6075213;29;20264;-72
2022/12/03 01:53:02;;;;;;;8.97;6.23;;;;;;;2.84;81.05;102688.53;6067966;29;20618;-72
2022/12/03 01:56:24;;;;;;;8.70;7.30;;;;;;;3.00;81.66;102697.84;6071630;28;21209;-74
2022/12/03 01:59:45;;;;;;;11.53;6.97;;;;;;;2.89;81.07;102688.44;6075372;29;20256;-72
2022/12/03 02:03:12;;;;;;;11.07;6.67;;;;;;;2.77;81.38;102689.66;6050801;29;20705;-73
2022/12/03 02:06:34;;;;;;;7.93;5.37;;;;;;;2.86;81.34;102696.47;6072241;29;20232;-74
2022/12/03 02:09:57;;;;;;;9.60;6.73;;;;;;;2.83;81.67;102700.13;6073717;29;21087;-75
2022/12/03 02:13:17;;;;;;;10.83;7.53;;;;;;;2.77;81.32;102697.63;6060066;29;20244;-73
2022/12/03 02:16:40;;;;;;;12.10;6.33;;;;;;;2.82;81.32;102701.03;6073967;28;20235;-74
2022/12/03 02:20:05;;;;;;;12.13;8.33;;;;;;;2.77;81.18;102702.09;6074680;29;20236;-72
2022/12/03 02:23:35;;;;;;;11.43;8.10;;;;;;;2.73;81.01;102701.31;6071015;29;20681;-73
2022/12/03 02:26:58;;;;;;;12.40;6.70;;;;;;;2.49;81.43;102701.94;6075400;29;20236;-73
2022/12/03 02:30:21;;;;;;;10.30;7.20;;;;;;;2.71;81.24;102708.44;6065500;29;20244;-74
2022/12/03 02:33:42;;;;;;;12.27;8.23;;;;;;;2.47;80.44;102701.09;6080974;28;20264;-73
2022/12/03 02:37:05;;;;;;;8.60;6.20;;;;;;;2.53;80.78;102700.94;6062581;29;20237;-73
2022/12/03 02:40:30;;;;;;;7.40;6.00;;;;;;;2.75;80.25;102707.47;6060526;29;20242;-73
2022/12/03 02:43:53;;;;;;;12.27;7.63;;;;;;;2.76;80.02;102700.31;6076122;29;20228;-73
2022/12/03 02:47:14;;;;;;;11.60;6.87;;;;;;;2.69;79.56;102707.59;6086299;29;20240;-73
2022/12/03 02:50:38;;;;;;;13.03;7.90;;;;;;;2.37;80.33;102697.81;6077081;28;21495;-73
2022/12/03 02:54:00;;;;;;;10.53;6.73;;;;;;;2.40;80.56;102696.84;6088926;29;20257;-73
2022/12/03 02:57:21;;;;;;;11.87;7.20;;;;;;;2.56;80.20;102692.00;6079999;28;20252;-71
2022/12/03 03:00:44;;;;;;;10.27;7.43;;;;;;;2.70;79.57;102698.72;6065562;28;20693;-72
2022/12/03 03:04:05;;;;;;;12.03;7.40;;;;;;;2.64;79.34;102698.00;6077454;28;20228;-73
2022/12/03 03:07:26;;;;;;;10.47;6.33;;;;;;;2.70;79.29;102696.03;6078277;29;20715;-73
2022/12/03 03:10:47;;;;;;;12.40;7.93;;;;;;;2.38;79.63;102694.22;6066910;29;20320;-73
2022/12/03 03:14:08;;;;;;;13.00;8.03;;;;;;;2.40;80.29;102691.53;6079647;29;20611;-73
2022/12/03 03:17:30;;;;;;;9.07;6.43;;;;;;;2.31;80.85;102697.09;6082053;28;20241;-73
2022/12/03 03:20:51;;;;;;;10.57;8.00;;;;;;;2.36;80.21;102697.84;6072440;29;22037;-73
2022/12/03 03:24:12;;;;;;;9.60;6.30;;;;;;;2.29;80.74;102691.84;6080500;29;20582;-73
2022/12/03 03:27:33;;;;;;;11.13;7.43;;;;;;;2.28;81.02;102687.41;6078714;29;20233;-73
2022/12/03 03:30:55;;;;;;;12.17;7.80;;;;;;;2.32;81.04;102682.88;6072681;29;20236;-73
2022/12/03 03:34:17;;;;;;;11.27;7.23;;;;;;;2.34;80.66;102681.91;6081890;28;20236;-74
2022/12/03 03:37:39;;;;;;;9.97;7.83;;;;;;;2.36;80.68;102679.22;6080503;29;20256;-73
2022/12/03 03:41:02;;;;;;;15.37;7.87;;;;;;;2.20;81.02;102677.88;6071656;28;20235;-74
2022/12/03 03:44:23;;;;;;;10.70;5.57;;;;;;;2.21;81.23;102677.81;6080227;29;20232;-73
2022/12/03 03:47:45;;;;;;;10.70;6.33;;;;;;;2.25;80.54;102675.97;6061015;29;20237;-73
2022/12/03 03:51:08;;;;;;;14.03;6.93;;;;;;;2.18;81.35;102669.94;6084465;29;20347;-73
2022/12/03 03:54:30;;;;;;;14.07;8.13;;;;;;;2.37;81.06;102670.34;6082997;29;20237;-73
2022/12/03 03:57:51;;;;;;;13.43;7.73;;;;;;;2.38;80.65;102672.94;6067979;29;20229;-73
2022/12/03 04:01:13;;;;;;;11.30;6.90;;;;;;;2.36;80.44;102665.91;6074563;29;20232;-73
2022/12/03 04:04:36;;;;;;;12.07;7.60;;;;;;;2.20;80.99;102662.78;6081235;29;20651;-73
2022/12/03 04:07:59;;;;;;;13.20;7.57;;;;;;;2.38;80.67;102658.75;6082441;28;20241;-72
2022/12/03 04:14:58;;;;;;;8.73;7.03;;;;;;;2.12;81.02;102663.91;6075364;29;20696;-74
2022/12/03 04:29:15;;;;;;;13.37;8.13;;;;;;;2.28;80.78;102675.88;6082378;29;20236;-74
2022/12/03 04:36:14;;;;;;;10.07;6.53;;;;;;;2.27;81.25;102672.34;6077273;29;20236;-74
2022/12/03 04:39:35;;;;;;;15.27;8.17;;;;;;;2.35;81.25;102669.50;6080551;28;20236;-74
2022/12/03 04:42:58;;;;;;;9.73;6.80;;;;;;;2.33;80.98;102669.56;6082168;29;20235;-73
2022/12/03 04:46:19;;;;;;;13.27;9.73;;;;;;;2.31;81.04;102668.72;6072983;28;20607;-72
2022/12/03 04:49:42;;;;;;;11.83;7.07;;;;;;;2.25;81.42;102663.53;6085194;28;20268;-74
2022/12/03 04:53:03;;;;;;;13.83;7.53;;;;;;;2.12;81.44;102661.22;6085062;28;20245;-74
2022/12/03 04:56:24;;;;;;;10.20;6.30;;;;;;;2.27;81.20;102660.84;6079265;28;20231;-73
2022/12/03 04:59:46;;;;;;;14.20;9.70;;;;;;;2.28;80.83;102667.91;6078676;29;20224;-74
2022/12/03 05:03:07;;;;;;;11.23;8.97;;;;;;;2.15;81.10;102666.50;6070776;29;20236;-73
2022/12/03 05:06:27;;;;;;;10.90;5.80;;;;;;;2.25;81.06;102668.00;6067866;28;20232;-73
2022/12/03 05:09:48;;;;;;;10.87;7.07;;;;;;;2.08;81.17;102668.44;6071039;28;20529;-74
2022/12/03 05:13:09;;;;;;;9.97;6.90;;;;;;;2.18;80.94;102661.97;6074943;29;20244;-73
2022/12/03 05:16:32;;;;;;;13.50;7.97;;;;;;;2.19;80.54;102661.03;6072797;29;20646;-73
2022/12/03 05:23:32;;;;;;;11.77;8.03;;;;;;;2.35;80.47;102666.84;6075285;28;20233;-74
2022/12/03 05:26:53;;;;;;;14.67;9.47;;;;;;;2.27;80.38;102659.03;6057054;29;20237;-74
2022/12/03 05:30:14;;;;;;;11.37;7.63;;;;;;;2.37;80.16;102655.25;6065030;29;20236;-74
2022/12/03 05:33:36;;;;;;;12.03;6.53;;;;;;;2.31;79.96;102655.41;6077049;29;20233;-74
2022/12/03 05:36:57;;;;;;;10.57;6.70;;;;;;;2.27;80.13;102650.22;6081530;29;20239;-73
2022/12/03 05:40:20;;;;;;;13.03;8.07;;;;;;;2.14;80.53;102654.97;6068711;29;20232;-74
2022/12/03 05:43:40;;;;;;;8.70;6.23;;;;;;;2.29;80.10;102653.69;6083862;29;20606;-73
2022/12/03 05:47:01;;;;;;;12.33;9.30;;;;;;;2.12;80.09;102645.28;6059675;29;20238;-73
2022/12/03 05:50:25;;;;;;;9.47;7.83;;;;;;;2.27;80.44;102652.88;6063984;28;20237;-74
2022/12/03 05:53:48;;;;;;;15.33;8.40;;;;;;;2.30;80.18;102652.78;6085524;29;20386;-73
2022/12/03 05:57:09;;;;;;;11.53;7.40;;;;;;;2.33;80.11;102640.28;6085504;29;20625;-73
2022/12/03 06:00:32;;;;;;;12.73;7.03;;;;;;;2.30;80.17;102645.66;6064846;28;21060;-76
2022/12/03 06:03:53;;;;;;;10.63;7.27;;;;;;;2.16;80.50;102652.25;6077404;29;23287;-73
2022/12/03 06:07:16;;;;;;;13.20;6.97;;;;;;;2.26;80.49;102651.09;6080206;28;20594;-73
2022/12/03 06:10:36;;;;;;;17.80;7.60;;;;;;;2.20;80.33;102643.28;6067886;28;20775;-74
2022/12/03 06:13:57;;;;;;;9.30;7.20;;;;;;;2.24;80.33;102645.84;6079336;28;20237;-73
2022/12/03 06:17:18;;;;;;;14.20;7.80;;;;;;;2.30;80.12;102647.44;6078254;28;20236;-73
2022/12/03 06:20:39;;;;;;;10.90;7.90;;;;;;;2.31;80.57;102643.88;6066922;28;20244;-72
2022/12/03 06:24:02;;;;;;;12.87;7.83;;;;;;;2.16;80.25;102639.84;6077338;29;20224;-73
2022/12/03 06:27:22;;;;;;;15.87;8.47;;;;;;;2.15;79.84;102639.91;6058722;29;20241;-73
2022/12/03 06:30:44;;;;;;;19.13;9.77;;;;;;;1.94;79.90;102633.31;6069398;28;20239;-73
2022/12/03 06:34:05;;;;;;;9.53;8.50;;;;;;;1.81;80.38;102631.00;6082252;29;20260;-73
2022/12/03 06:37:25;;;;;;;9.47;8.27;;;;;;;1.90;79.72;102630.78;6085167;28;20235;-74
2022/12/03 06:40:48;;;;;;;11.93;7.93;;;;;;;1.86;79.48;102631.75;6071382;28;20239;-74
2022/12/03 06:44:10;;;;;;;13.43;7.97;;;;;;;1.87;78.75;102634.38;6082569;28;20232;-74
2022/12/03 06:47:30;;;;;;;10.37;7.93;;;;;;;1.89;79.01;102632.56;6077023;29;20233;-74
2022/12/03 06:50:51;;;;;;;12.53;9.00;;;;;;;1.79;79.28;102633.72;6071587;29;20635;-73
2022/12/03 06:54:12;;;;;;;14.97;8.37;;;;;;;1.84;79.19;102641.53;6083471;29;20491;-74
2022/12/03 06:57:34;;;;;;;12.60;8.73;;;;;;;1.84;79.04;102642.44;6086397;28;20240;-74
2022/12/03 07:00:56;;;;;;;12.70;8.47;;;;;;;1.71;79.13;102646.28;6065352;29;20232;-73
2022/12/03 07:04:17;;;;;;;14.13;9.77;;;;;;;1.80;79.42;102640.75;6071725;29;20236;-73
2022/12/03 07:07:38;;;;;;;11.50;8.03;;;;;;;1.85;78.85;102638.88;6083099;28;20319;-74
2022/12/03 07:11:00;;;;;;;15.17;8.13;;;;;;;1.83;79.03;102639.81;6067610;29;20354;-73
2022/12/03 07:14:21;;;;;;;15.60;9.60;;;;;;;1.84;79.15;102650.41;6077195;29;20267;-73
2022/12/03 07:17:42;;;;;;;12.77;8.07;;;;;;;1.89;79.37;102651.16;6080447;29;20294;-74
2022/12/03 07:21:03;;;;;;;13.87;7.90;;;;;;;2.01;79.11;102649.97;6074978;28;20323;-73
2022/12/03 07:24:24;;;;;;;13.07;7.80;;;;;;;2.06;78.39;102645.44;6082964;29;20233;-73
2022/12/03 07:27:45;;;;;;;11.07;6.33;;;;;;;1.97;77.91;102643.88;6083466;28;20236;-73
2022/12/03 07:31:08;;;;;;;10.80;8.07;;;;;;;1.93;78.73;102651.97;6059699;29;20236;-74
2022/12/03 07:34:29;;;;;;;13.13;7.90;;;;;;;2.04;78.12;102656.13;6075756;29;20232;-75
2022/12/03 07:37:50;;;;;;;11.20;7.60;;;;;;;1.95;78.07;102652.78;6081237;29;20615;-74
2022/12/03 07:41:11;;;;;;;13.30;8.07;;;;;;;1.88;78.61;102641.44;6070778;29;20319;-76
2022/12/03 07:44:32;;;;;;;12.73;9.03;;;;;;;1.86;78.12;102639.72;6068451;29;20233;-70
2022/12/03 07:47:54;;;;;;;10.93;7.87;;;;;;;1.86;78.01;102642.38;6075736;29;20332;-73
2022/12/03 07:51:15;;;;;;;13.30;7.90;;;;;;;1.83;78.44;102640.69;6083150;29;20611;-73
2022/12/03 07:54:36;;;;;;;12.60;7.47;;;;;;;1.96;78.16;102642.13;6093465;29;20228;-73
2022/12/03 07:57:57;;;;;;;16.17;7.80;;;;;;;1.97;77.86;102638.56;6097599;29;20220;-73
2022/12/03 08:01:17;;;;;;;12.73;7.53;;;;;;;2.12;77.70;102638.19;6076348;29;20255;-72
2022/12/03 08:04:40;;;;;;;16.50;8.17;;;;;;;2.20;76.95;102636.19;6082877;28;20244;-74
2022/12/03 08:08:01;;;;;;;17.87;8.80;;;;;;;2.19;77.09;102628.25;6086669;29;20236;-75
2022/12/03 08:11:22;;;;;;;13.40;7.77;;;;;;;2.32;76.63;102627.00;6075729;29;20237;-75
2022/12/03 08:14:43;;;;;;;17.00;8.27;;;;;;;2.30;76.72;102627.03;6081566;29;20255;-76
2022/12/03 08:18:12;;;;;;;17.07;8.10;;;;;;;2.37;76.18;102625.09;6086367;29;20643;-73
2022/12/03 08:21:36;;;;;;;14.27;8.60;;;;;;;2.43;75.89;102620.50;6085748;29;20322;-75
2022/12/03 08:24:58;;;;;;;13.20;7.67;;;;;;;2.58;75.20;102620.97;6088444;29;20240;-74
2022/12/03 08:28:21;;;;;;;17.10;8.03;;;;;;;2.86;75.10;102625.47;6088550;29;20232;-75
2022/12/03 08:31:47;;;;;;;16.13;9.00;;;;;;;3.35;72.67;102619.56;6086508;29;20232;-74
2022/12/03 08:35:12;;;;;;;14.83;9.37;;;;;;;3.03;73.54;102614.31;6081229;29;20240;-75
2022/12/03 08:38:35;;;;;;;21.43;9.17;;;;;;;3.22;73.32;102608.41;6079001;28;20260;-74
2022/12/03 08:45:41;;;;;;;14.10;9.57;;;;;;;5.28;67.26;102606.44;6058637;29;20240;-74
2022/12/03 08:49:02;;;;;;;10.10;8.00;;;;;;;5.15;68.49;102615.91;6085750;29;20328;-75
2022/12/03 08:52:30;;;;;;;10.53;7.27;;;;;;;4.98;68.77;102603.19;6086507;29;20339;-74
2022/12/03 08:55:54;;;;;;;11.50;8.30;;;;;;;4.55;67.52;102600.31;6072668;29;20240;-74
2022/12/03 08:59:25;;;;;;;14.90;8.47;;;;;;;4.21;68.97;102599.81;6090241;29;20232;-75
2022/12/03 09:02:49;;;;;;;10.87;7.00;;;;;;;4.34;68.51;102599.31;6074509;29;20231;-74
2022/12/03 09:06:10;;;;;;;13.20;8.17;;;;;;;4.74;75.21;102590.72;6069402;29;20690;-76
2022/12/03 09:09:33;;;;;;;16.70;7.97;;;;;;;4.26;69.65;102596.03;6071746;29;20244;-75
2022/12/03 09:12:55;;;;;;;12.67;8.60;;;;;;;4.02;70.07;102591.56;6083633;29;20792;-75
2022/12/03 09:16:16;;;;;;;12.73;7.23;;;;;;;4.26;68.61;102588.03;6075291;29;20235;-75
2022/12/03 09:19:43;;;;;;;14.07;7.70;;;;;;;4.86;67.54;102580.44;6075987;29;20233;-76
2022/12/03 09:23:04;;;;;;;14.63;8.23;;;;;;;6.09;63.25;102580.84;6086764;29;20861;-75
2022/12/03 09:26:25;;;;;;;14.57;8.63;;;;;;;6.19;61.67;102576.81;6075310;29;20524;-75
2022/12/03 09:29:48;;;;;;;17.80;8.63;;;;;;;5.02;64.79;102574.53;6085052;29;20252;-76
2022/12/03 09:33:09;;;;;;;13.53;8.17;;;;;;;5.51;64.14;102574.31;6072727;29;20241;-76
2022/12/03 09:36:30;;;;;;;14.83;8.17;;;;;;;5.00;64.88;102577.25;6088758;29;20995;-76
2022/12/03 09:39:50;;;;;;;9.17;6.27;;;;;;;4.45;66.75;102574.91;6088459;28;20248;-76
2022/12/03 09:43:12;;;;;;;9.53;7.03;;;;;;;4.31;67.67;102574.53;6075753;29;20603;-76
2022/12/03 09:46:36;;;;;;;8.23;6.33;;;;;;;4.12;68.91;102574.31;6070839;28;20482;-75
2022/12/03 09:49:57;;;;;;;11.97;8.90;;;;;;;4.24;67.96;102571.19;6067755;29;22076;-76
2022/12/03 09:53:21;;;;;;;16.23;7.50;;;;;;;4.23;68.01;102574.81;6068808;29;20652;-76
2022/12/03 09:56:42;;;;;;;14.37;8.20;;;;;;;3.91;68.88;102572.38;6085169;29;20306;-76
2022/12/03 10:00:14;;;;;;;13.37;7.43;;;;;;;3.83;69.66;102561.09;6075961;29;20990;-76
2022/12/03 10:03:38;;;;;;;12.23;7.27;;;;;;;4.12;69.35;102554.75;6072383;29;20945;-76
2022/12/03 10:06:59;;;;;;;14.40;8.10;;;;;;;4.37;68.84;102556.50;6081076;28;20247;-76
2022/12/03 10:10:22;;;;;;;10.60;8.37;;;;;;;4.48;67.37;102567.66;6060354;28;20789;-75
2022/12/03 10:13:44;;;;;;;9.20;6.50;;;;;;;4.32;68.15;102553.09;6076899;28;20245;-76
2022/12/03 10:17:05;;;;;;;11.57;6.00;;;;;;;4.42;79.46;102557.19;6075655;29;20239;-77
2022/12/03 10:20:27;;;;;;;25.10;7.83;;;;;;;4.41;70.30;102550.13;6063500;29;20256;-76
2022/12/03 10:23:49;;;;;;;14.07;8.03;;;;;;;4.17;69.42;102548.34;6084367;29;20236;-75
2022/12/03 10:27:21;;;;;;;12.50;7.77;;;;;;;3.97;69.46;102535.69;6089937;29;20227;-75
2022/12/03 10:30:54;;;;;;;11.07;7.13;;;;;;;3.88;69.30;102543.16;6068698;29;20335;-76
2022/12/03 10:34:23;;;;;;;11.13;7.20;;;;;;;3.80;69.41;102538.06;6082141;28;20248;-75
2022/12/03 10:38:05;;;;;;;15.00;9.40;;;;;;;3.53;69.95;102540.78;6072037;29;20232;-75
2022/12/03 10:41:29;;;;;;;11.50;6.97;;;;;;;3.62;70.30;102535.16;6059476;29;20586;-74
2022/12/03 10:44:52;;;;;;;11.77;8.33;;;;;;;3.81;70.37;102536.28;6081837;28;20322;-75
2022/12/03 10:48:15;;;;;;;8.27;6.33;;;;;;;3.91;70.00;102535.03;6076308;29;20232;-74
2022/12/03 10:51:38;;;;;;;10.53;7.73;;;;;;;4.04;71.27;102531.00;6066293;29;20610;-75
2022/12/03 10:55:00;;;;;;;12.27;7.73;;;;;;;4.00;71.40;102522.22;6064593;29;20225;-75
2022/12/03 10:58:23;;;;;;;9.50;7.90;;;;;;;3.73;70.76;102528.53;6062882;29;20228;-74
2022/12/03 11:01:44;;;;;;;11.00;7.23;;;;;;;3.86;70.57;102524.50;6044749;29;21583;-76
2022/12/03 11:05:06;;;;;;;14.13;8.87;;;;;;;3.79;71.07;102522.13;6061842;28;20233;-75
2022/12/03 11:08:30;;;;;;;12.57;8.30;;;;;;;3.72;71.19;102512.56;6069136;28;20233;-76
2022/12/03 11:11:54;;;;;;;13.00;6.97;;;;;;;3.49;71.31;102512.47;6052438;29;20244;-75
2022/12/03 11:15:16;;;;;;;10.33;6.77;;;;;;;3.42;71.51;102516.28;6051433;28;20248;-75
2022/12/03 11:19:01;;;;;;;9.63;6.40;;;;;;;3.28;72.47;102515.84;6071266;29;20229;-76
2022/12/03 11:22:41;;;;;;;12.83;8.50;;;;;;;3.33;71.96;102508.59;6079352;29;20954;-75
2022/12/03 11:26:02;;;;;;;9.60;6.40;;;;;;;3.63;71.54;102502.25;6061168;28;20950;-75
2022/12/03 11:29:49;;;;;;;14.13;8.90;;;;;;;3.66;71.44;102502.13;6077222;28;20302;-76
2022/12/03 11:33:21;;;;;;;11.47;8.47;;;;;;;3.60;71.14;102484.56;6067526;29;20240;-75
2022/12/03 11:37:19;;;;;;;11.80;7.10;;;;;;;3.54;71.41;102478.56;6076608;28;20315;-75
2022/12/03 11:40:40;;;;;;;12.57;7.63;;;;;;;3.60;71.49;102473.00;6074737;29;20243;-75
2022/12/03 11:44:29;;;;;;;8.70;7.17;;;;;;;3.74;71.54;102479.59;6087993;29;20264;-74
2022/12/03 11:48:09;;;;;;;12.23;6.70;;;;;;;3.74;71.06;102478.72;6080878;29;20561;-74
2022/12/03 11:51:30;;;;;;;10.43;7.67;;;;;;;3.77;70.94;102468.84;6071514;29;20374;-75
2022/12/03 11:54:56;;;;;;;8.63;6.33;;;;;;;3.77;71.38;102470.63;6075917;29;20236;-71
2022/12/03 11:58:21;;;;;;;10.20;7.20;;;;;;;3.91;70.97;102465.66;6077586;29;20236;-70
2022/12/03 12:01:44;;;;;;;12.77;7.30;;;;;;;3.68;71.48;102458.50;6071654;29;21894;-70
2022/12/03 12:05:29;;;;;;;11.27;6.37;;;;;;;3.51;71.45;102446.66;6071172;29;20237;-74
2022/12/03 12:08:58;;;;;;;10.10;6.87;;;;;;;3.56;71.93;102442.94;6073516;29;20710;-75
2022/12/03 12:12:27;;;;;;;13.13;6.83;;;;;;;3.55;71.83;102451.84;6086779;29;20223;-74
2022/12/03 12:15:48;;;;;;;11.97;8.27;;;;;;;3.56;71.87;102455.38;6071501;28;22599;-73
2022/12/03 12:19:29;;;;;;;14.13;7.23;;;;;;;3.32;72.99;102441.09;6083947;29;20577;-75
2022/12/03 12:22:53;;;;;;;7.97;5.87;;;;;;;3.58;72.50;102432.19;6054306;29;20228;-74
2022/12/03 12:26:14;;;;;;;13.43;7.87;;;;;;;3.68;71.86;102423.81;6071496;28;20236;-73
2022/12/03 12:29:35;;;;;;;13.13;7.83;;;;;;;3.62;72.08;102412.50;6079610;29;20560;-74
2022/12/03 12:33:07;;;;;;;10.60;6.67;;;;;;;3.69;71.70;102414.03;6063617;29;20236;-73
2022/12/03 12:36:28;;;;;;;10.00;6.83;;;;;;;3.46;71.78;102403.31;6078279;28;20232;-74
2022/12/03 12:39:53;;;;;;;9.23;7.53;;;;;;;3.49;72.01;102412.06;6075396;28;20232;-74
2022/12/03 12:43:23;;;;;;;13.80;7.23;;;;;;;3.29;73.16;102405.69;6078441;29;20319;-75
2022/12/03 12:46:46;;;;;;;10.23;7.47;;;;;;;3.34;72.89;102406.41;6079495;29;20235;-74
2022/12/03 12:50:10;;;;;;;9.20;6.70;;;;;;;3.42;72.66;102396.34;6076898;29;20240;-71
2022/12/03 12:53:33;;;;;;;10.17;6.87;;;;;;;3.34;73.25;102393.09;6065467;28;20237;-72
2022/12/03 12:56:55;;;;;;;10.93;7.70;;;;;;;3.16;73.08;102400.78;6059154;29;21690;-71
2022/12/03 13:00:19;;;;;;;12.07;5.87;;;;;;;3.31;73.13;102394.06;6076722;29;20236;-72
2022/12/03 13:03:40;;;;;;;12.30;8.60;;;;;;;3.09;73.44;102390.34;6088342;28;20227;-70
2022/12/03 13:07:03;;;;;;;11.97;7.40;;;;;;;3.04;73.71;102379.88;6080939;29;20228;-70
2022/12/03 13:10:36;;;;;;;9.07;6.73;;;;;;;3.22;73.32;102387.25;6074166;29;20232;-70
2022/12/03 13:14:01;;;;;;;10.47;6.10;;;;;;;3.42;72.74;102377.69;6088309;28;20319;-70
2022/12/03 13:17:23;;;;;;;11.87;7.50;;;;;;;3.47;72.77;102376.59;6086865;29;20244;-71
2022/12/03 13:20:43;;;;;;;11.73;6.10;;;;;;;3.50;72.83;102376.50;6072958;29;20236;-72
2022/12/03 13:24:28;;;;;;;11.63;6.97;;;;;;;3.65;72.34;102367.09;6086558;29;20351;-70
2022/12/03 13:27:49;;;;;;;12.77;7.93;;;;;;;3.54;72.76;102370.13;6082235;29;20783;-70
2022/12/03 13:31:23;;;;;;;13.60;7.73;;;;;;;3.61;72.63;102374.31;6074601;29;20641;-70
2022/12/03 13:34:45;;;;;;;8.63;5.73;;;;;;;3.40;72.88;102380.38;6087197;29;20228;-71
2022/12/03 13:38:13;;;;;;;11.70;6.33;;;;;;;3.45;73.16;102375.78;6087993;29;20233;-72
2022/12/03 13:45:32;;;;;;;11.07;6.77;;;;;;;3.11;73.25;102367.19;6082869;29;20231;-70
2022/12/03 13:48:55;;;;;;;8.77;5.47;;;;;;;3.30;73.30;102378.13;6095462;29;20240;-71
2022/12/03 13:52:20;;;;;;;9.13;5.43;;;;;;;3.30;73.27;102375.47;6056383;29;20236;-71
2022/12/03 13:55:45;;;;;;;11.97;6.27;;;;;;;3.08;73.18;102386.84;6086088;29;20260;-71
2022/12/03 13:59:08;;;;;;;11.80;5.23;;;;;;;3.13;73.36;102379.56;6089021;29;20224;-71
2022/12/03 14:02:28;;;;;;;8.07;6.83;;;;;;;3.04;72.59;102377.22;6071991;29;20232;-73
2022/12/03 14:05:51;;;;;;;11.03;6.07;;;;;;;3.18;73.02;102374.94;6073659;29;20302;-70
2022/12/03 14:09:11;;;;;;;10.53;6.73;;;;;;;3.20;72.82;102378.44;6087071;29;20236;-71
2022/12/03 14:12:33;;;;;;;11.00;6.17;;;;;;;3.06;73.04;102366.50;6056796;29;20509;-72
2022/12/03 14:15:54;;;;;;;11.20;6.53;;;;;;;2.85;73.71;102365.44;6075574;29;20232;-71
2022/12/03 14:19:15;;;;;;;10.83;7.07;;;;;;;2.96;73.72;102373.06;6060825;29;20642;-72
2022/12/03 14:22:38;;;;;;;8.07;6.30;;;;;;;2.98;73.26;102373.91;6081776;29;20236;-73
2022/12/03 14:25:58;;;;;;;8.67;5.63;;;;;;;2.93;73.78;102367.84;6082226;29;20256;-71
2022/12/03 14:29:19;;;;;;;11.13;7.10;;;;;;;2.91;73.64;102361.69;6088861;29;20240;-71
2022/12/03 14:32:40;;;;;;;8.87;5.40;;;;;;;2.85;73.80;102365.44;6082676;28;20332;-72
2022/12/03 14:36:01;;;;;;;9.27;5.83;;;;;;;2.74;73.86;102364.91;6073518;29;20237;-71
2022/12/03 14:39:23;;;;;;;8.30;5.83;;;;;;;2.56;75.13;102360.19;6075205;29;20594;-71
2022/12/03 14:42:44;;;;;;;11.77;6.40;;;;;;;2.61;74.86;102365.38;6079844;28;20244;-72
2022/12/03 14:46:05;;;;;;;9.57;5.97;;;;;;;2.77;74.82;102361.28;6072886;29;20248;-72
2022/12/03 14:49:26;;;;;;;7.97;6.50;;;;;;;2.78;74.48;102369.22;6088702;29;20236;-72
2022/12/03 14:52:47;;;;;;;9.27;7.27;;;;;;;2.90;74.25;102355.47;6085959;29;20233;-72
2022/12/03 14:56:10;;;;;;;12.57;6.70;;;;;;;2.92;74.78;102352.78;6080705;29;20223;-71
2022/12/03 14:59:31;;;;;;;10.83;7.07;;;;;;;2.93;74.40;102350.06;6079681;29;20616;-71
2022/12/03 15:02:51;;;;;;;8.80;6.00;;;;;;;2.90;74.86;102347.50;6060714;29;20245;-72
2022/12/03 15:06:12;;;;;;;13.77;7.20;;;;;;;2.84;74.58;102347.69;6067470;29;20259;-71
2022/12/03 15:09:33;;;;;;;7.57;5.60;;;;;;;2.81;74.86;102354.94;6069711;29;20557;-71
2022/12/03 15:12:55;;;;;;;9.13;5.70;;;;;;;2.77;74.96;102354.19;6050199;28;20572;-72
2022/12/03 15:16:16;;;;;;;8.37;6.17;;;;;;;2.85;75.13;102353.91;6083874;28;20232;-71
2022/12/03 15:19:37;;;;;;;11.00;7.03;;;;;;;2.75;75.52;102344.50;6086503;28;20745;-71
2022/12/03 15:22:58;;;;;;;7.60;5.23;;;;;;;2.80;75.39;102351.41;6098164;29;20232;-71
2022/12/03 15:26:19;;;;;;;14.73;7.43;;;;;;;2.83;75.24;102345.09;6084386;29;21943;-71
2022/12/03 15:29:41;;;;;;;11.27;7.57;;;;;;;2.88;75.32;102351.16;6088186;29;20241;-72
2022/12/03 15:33:02;;;;;;;15.43;7.13;;;;;;;3.28;79.73;102337.31;6069973;29;20237;-71
2022/12/03 15:36:23;;;;;;;8.70;6.07;;;;;;;3.20;75.29;102345.59;6070353;29;20535;-72
2022/12/03 15:39:44;;;;;;;8.97;6.53;;;;;;;3.09;74.59;102342.41;6055547;29;20229;-71
2022/12/03 15:43:05;;;;;;;8.63;6.40;;;;;;;3.05;75.01;102339.00;6090376;29;20225;-72
2022/12/03 15:46:28;;;;;;;9.57;8.13;;;;;;;3.01;75.53;102339.16;6067548;28;20235;-71
2022/12/03 15:49:49;;;;;;;10.73;6.50;;;;;;;2.96;75.13;102338.44;6075737;28;20255;-74
2022/12/03 15:53:10;;;;;;;7.63;5.10;;;;;;;2.61;75.86;102334.28;6076213;29;20240;-72
2022/12/03 15:56:31;;;;;;;13.60;6.87;;;;;;;2.65;76.60;102341.25;6068115;29;20265;-71
2022/12/03 15:59:53;;;;;;;9.03;5.90;;;;;;;2.80;76.19;102335.41;6082520;29;20525;-72
2022/12/03 16:03:15;;;;;;;9.27;6.50;;;;;;;2.92;76.17;102329.66;6068851;29;20272;-72
2022/12/03 16:06:36;;;;;;;10.07;6.23;;;;;;;2.94;75.83;102325.16;6078842;29;20231;-72
2022/12/03 16:09:57;;;;;;;8.50;5.13;;;;;;;2.94;75.57;102332.31;6074703;29;20279;-72
2022/12/03 16:13:18;;;;;;;11.10;7.10;;;;;;;2.86;75.89;102326.34;6076876;29;20237;-72
2022/12/03 16:16:39;;;;;;;9.23;6.13;;;;;;;2.89;76.01;102323.59;6066779;29;20236;-71